sensor_id;sensor_type;location;lat;lon;timestamp;P1;durP1;ratioP1;P2;durP2;ratioP2
60306;SDS011;46155;52.364;6.580;2023-04-24T03:02:50;29.50;;;27.07;;
60306;SDS011;46155;52.364;6.580;2023-04-24T03:05:15;31.47;;;28.60;;
60306;SDS011;46155;52.364;6.580;2023-04-24T03:07:41;30.57;;;28.03;;
60306;SDS011;46155;52.364;6.580;2023-04-24T03:10:06;32.13;;;29.43;;
60306;SDS011;46155;52.364;6.580;2023-04-24T03:12:32;30.80;;;28.13;;
60306;SDS011;46155;52.364;6.580;2023-04-24T03:14:57;32.30;;;29.20;;
60306;SDS011;46155;52.364;6.580;2023-04-24T03:17:23;30.07;;;27.77;;
60306;SDS011;46155;52.364;6.580;2023-04-24T03:19:48;31.83;;;29.23;;
60306;SDS011;46155;52.364;6.580;2023-04-24T03:22:13;29.20;;;26.97;;
60306;SDS011;46155;52.364;6.580;2023-04-24T03:24:39;27.37;;;25.47;;
60306;SDS011;46155;52.364;6.580;2023-04-24T03:27:05;27.77;;;25.97;;
60306;SDS011;46155;52.364;6.580;2023-04-24T03:29:30;26.37;;;24.43;;
60306;SDS011;46155;52.364;6.580;2023-04-24T03:31:55;26.07;;;24.30;;
60306;SDS011;46155;52.364;6.580;2023-04-24T03:34:21;25.57;;;24.03;;
60306;SDS011;46155;52.364;6.580;2023-04-24T03:36:46;26.53;;;24.83;;
60306;SDS011;46155;52.364;6.580;2023-04-24T03:39:14;26.67;;;24.97;;
60306;SDS011;46155;52.364;6.580;2023-04-24T03:41:39;27.57;;;25.77;;
60306;SDS011;46155;52.364;6.580;2023-04-24T03:44:05;26.70;;;25.10;;
60306;SDS011;46155;52.364;6.580;2023-04-24T03:46:30;27.37;;;25.87;;
60306;SDS011;46155;52.364;6.580;2023-04-24T03:48:56;26.57;;;24.97;;
60306;SDS011;46155;52.364;6.580;2023-04-24T03:51:21;25.20;;;23.63;;
60306;SDS011;46155;52.364;6.580;2023-04-24T03:53:48;25.27;;;23.83;;
60306;SDS011;46155;52.364;6.580;2023-04-24T03:56:14;25.80;;;24.37;;
60306;SDS011;46155;52.364;6.580;2023-04-24T03:58:39;27.43;;;25.83;;
60306;SDS011;46155;52.364;6.580;2023-04-24T04:01:05;26.53;;;24.93;;
60306;SDS011;46155;52.364;6.580;2023-04-24T04:03:31;28.13;;;26.47;;
60306;SDS011;46155;52.364;6.580;2023-04-24T04:05:56;27.77;;;26.20;;
60306;SDS011;46155;52.364;6.580;2023-04-24T04:08:31;25.57;;;23.97;;
60306;SDS011;46155;52.364;6.580;2023-04-24T04:10:56;28.17;;;26.43;;
60306;SDS011;46155;52.364;6.580;2023-04-24T04:13:21;28.47;;;26.83;;
60306;SDS011;46155;52.364;6.580;2023-04-24T04:15:46;28.20;;;26.60;;
60306;SDS011;46155;52.364;6.580;2023-04-24T04:18:12;29.10;;;27.40;;
60306;SDS011;46155;52.364;6.580;2023-04-24T04:20:37;29.17;;;27.17;;
60306;SDS011;46155;52.364;6.580;2023-04-24T04:23:02;33.63;;;31.53;;
60306;SDS011;46155;52.364;6.580;2023-04-24T04:25:28;32.53;;;30.33;;
60306;SDS011;46155;52.364;6.580;2023-04-24T04:27:54;33.73;;;31.73;;
60306;SDS011;46155;52.364;6.580;2023-04-24T04:30:25;32.87;;;30.57;;
60306;SDS011;46155;52.364;6.580;2023-04-24T04:32:51;32.63;;;30.27;;
60306;SDS011;46155;52.364;6.580;2023-04-24T04:35:16;32.43;;;29.73;;
60306;SDS011;46155;52.364;6.580;2023-04-24T04:37:41;33.33;;;30.80;;
60306;SDS011;46155;52.364;6.580;2023-04-24T04:40:07;34.20;;;31.37;;
60306;SDS011;46155;52.364;6.580;2023-04-24T04:42:34;33.83;;;31.13;;
60306;SDS011;46155;52.364;6.580;2023-04-24T04:45:00;34.17;;;31.47;;
60306;SDS011;46155;52.364;6.580;2023-04-24T04:47:27;29.57;;;27.37;;
60306;SDS011;46155;52.364;6.580;2023-04-24T04:49:53;29.80;;;27.40;;
60306;SDS011;46155;52.364;6.580;2023-04-24T04:52:25;29.83;;;27.43;;
60306;SDS011;46155;52.364;6.580;2023-04-24T04:54:52;29.37;;;26.97;;
60306;SDS011;46155;52.364;6.580;2023-04-24T04:57:17;27.77;;;25.47;;
60306;SDS011;46155;52.364;6.580;2023-04-24T04:59:43;27.70;;;25.63;;
60306;SDS011;46155;52.364;6.580;2023-04-24T05:02:08;26.33;;;24.33;;
60306;SDS011;46155;52.364;6.580;2023-04-24T05:04:34;28.50;;;26.23;;
60306;SDS011;46155;52.364;6.580;2023-04-24T05:06:59;27.17;;;25.20;;
60306;SDS011;46155;52.364;6.580;2023-04-24T05:09:25;27.00;;;25.07;;
60306;SDS011;46155;52.364;6.580;2023-04-24T05:11:52;28.57;;;26.47;;
60306;SDS011;46155;52.364;6.580;2023-04-24T05:14:18;30.10;;;27.13;;
60306;SDS011;46155;52.364;6.580;2023-04-24T05:16:44;33.17;;;30.07;;
60306;SDS011;46155;52.364;6.580;2023-04-24T05:19:09;30.80;;;28.17;;
60306;SDS011;46155;52.364;6.580;2023-04-24T05:21:36;32.50;;;29.80;;
60306;SDS011;46155;52.364;6.580;2023-04-24T05:24:02;31.23;;;28.43;;
60306;SDS011;46155;52.364;6.580;2023-04-24T05:26:28;32.50;;;29.57;;
60306;SDS011;46155;52.364;6.580;2023-04-24T05:28:53;37.23;;;33.53;;
60306;SDS011;46155;52.364;6.580;2023-04-24T05:31:18;37.70;;;34.17;;
60306;SDS011;46155;52.364;6.580;2023-04-24T05:33:45;39.67;;;35.77;;
60306;SDS011;46155;52.364;6.580;2023-04-24T05:36:10;40.33;;;36.27;;
60306;SDS011;46155;52.364;6.580;2023-04-24T05:38:35;41.90;;;37.60;;
60306;SDS011;46155;52.364;6.580;2023-04-24T05:41:01;42.13;;;37.13;;
60306;SDS011;46155;52.364;6.580;2023-04-24T05:43:26;45.40;;;37.80;;
60306;SDS011;46155;52.364;6.580;2023-04-24T05:45:51;44.27;;;39.43;;
60306;SDS011;46155;52.364;6.580;2023-04-24T05:48:18;40.50;;;36.40;;
60306;SDS011;46155;52.364;6.580;2023-04-24T05:50:44;42.97;;;38.37;;
60306;SDS011;46155;52.364;6.580;2023-04-24T05:53:09;40.77;;;36.37;;
60306;SDS011;46155;52.364;6.580;2023-04-24T05:55:35;42.07;;;37.57;;
60306;SDS011;46155;52.364;6.580;2023-04-24T05:58:01;41.47;;;37.00;;
60306;SDS011;46155;52.364;6.580;2023-04-24T06:00:26;39.80;;;35.67;;
60306;SDS011;46155;52.364;6.580;2023-04-24T06:02:52;42.73;;;37.07;;
60306;SDS011;46155;52.364;6.580;2023-04-24T06:05:17;41.67;;;37.43;;
60306;SDS011;46155;52.364;6.580;2023-04-24T06:07:44;43.27;;;38.77;;
60306;SDS011;46155;52.364;6.580;2023-04-24T06:10:09;44.67;;;39.43;;
60306;SDS011;46155;52.364;6.580;2023-04-24T06:12:35;47.53;;;41.70;;
60306;SDS011;46155;52.364;6.580;2023-04-24T06:15:01;52.53;;;41.03;;
60306;SDS011;46155;52.364;6.580;2023-04-24T06:17:30;44.70;;;40.23;;
60306;SDS011;46155;52.364;6.580;2023-04-24T06:19:56;45.67;;;41.23;;
60306;SDS011;46155;52.364;6.580;2023-04-24T06:22:21;42.87;;;38.80;;
60306;SDS011;46155;52.364;6.580;2023-04-24T06:24:46;44.53;;;40.47;;
60306;SDS011;46155;52.364;6.580;2023-04-24T06:27:13;40.63;;;36.60;;
60306;SDS011;46155;52.364;6.580;2023-04-24T06:29:39;38.67;;;35.07;;
60306;SDS011;46155;52.364;6.580;2023-04-24T06:32:05;39.67;;;35.97;;
60306;SDS011;46155;52.364;6.580;2023-04-24T06:34:30;39.90;;;35.93;;
60306;SDS011;46155;52.364;6.580;2023-04-24T06:36:57;44.73;;;40.50;;
60306;SDS011;46155;52.364;6.580;2023-04-24T06:39:23;43.17;;;38.80;;
60306;SDS011;46155;52.364;6.580;2023-04-24T06:41:49;44.40;;;40.27;;
60306;SDS011;46155;52.364;6.580;2023-04-24T06:44:15;44.30;;;40.17;;
60306;SDS011;46155;52.364;6.580;2023-04-24T06:46:43;44.27;;;40.07;;
60306;SDS011;46155;52.364;6.580;2023-04-24T06:49:09;40.83;;;37.17;;
60306;SDS011;46155;52.364;6.580;2023-04-24T06:51:34;38.53;;;35.20;;
60306;SDS011;46155;52.364;6.580;2023-04-24T06:53:59;39.33;;;35.60;;
60306;SDS011;46155;52.364;6.580;2023-04-24T06:56:25;36.27;;;33.23;;
60306;SDS011;46155;52.364;6.580;2023-04-24T06:58:51;37.63;;;34.10;;
60306;SDS011;46155;52.364;6.580;2023-04-24T07:01:16;36.37;;;33.37;;
60306;SDS011;46155;52.364;6.580;2023-04-24T07:03:42;34.30;;;31.37;;
60306;SDS011;46155;52.364;6.580;2023-04-24T07:06:07;34.77;;;31.73;;
60306;SDS011;46155;52.364;6.580;2023-04-24T07:08:32;33.33;;;30.10;;
60306;SDS011;46155;52.364;6.580;2023-04-24T07:10:58;36.23;;;32.00;;
60306;SDS011;46155;52.364;6.580;2023-04-24T07:13:24;33.00;;;30.10;;
60306;SDS011;46155;52.364;6.580;2023-04-24T07:15:49;31.67;;;28.67;;
60306;SDS011;46155;52.364;6.580;2023-04-24T07:18:17;32.40;;;29.70;;
60306;SDS011;46155;52.364;6.580;2023-04-24T07:20:43;31.73;;;29.33;;
60306;SDS011;46155;52.364;6.580;2023-04-24T07:23:08;31.93;;;28.90;;
60306;SDS011;46155;52.364;6.580;2023-04-24T07:25:34;32.47;;;29.90;;
60306;SDS011;46155;52.364;6.580;2023-04-24T07:27:59;32.43;;;29.63;;
60306;SDS011;46155;52.364;6.580;2023-04-24T07:30:25;29.97;;;27.60;;
60306;SDS011;46155;52.364;6.580;2023-04-24T07:32:51;29.23;;;27.07;;
60306;SDS011;46155;52.364;6.580;2023-04-24T07:35:16;25.67;;;23.97;;
60306;SDS011;46155;52.364;6.580;2023-04-24T07:37:42;30.17;;;28.20;;
60306;SDS011;46155;52.364;6.580;2023-04-24T07:40:14;27.37;;;25.53;;
60306;SDS011;46155;52.364;6.580;2023-04-24T07:42:40;29.07;;;27.17;;
60306;SDS011;46155;52.364;6.580;2023-04-24T07:45:06;30.20;;;28.27;;
60306;SDS011;46155;52.364;6.580;2023-04-24T07:47:32;31.37;;;29.47;;
60306;SDS011;46155;52.364;6.580;2023-04-24T07:49:59;30.73;;;28.80;;
60306;SDS011;46155;52.364;6.580;2023-04-24T07:52:26;28.83;;;26.83;;
60306;SDS011;46155;52.364;6.580;2023-04-24T07:54:51;27.93;;;26.13;;
60306;SDS011;46155;52.364;6.580;2023-04-24T07:57:23;29.50;;;27.60;;
60306;SDS011;46155;52.364;6.580;2023-04-24T07:59:50;29.53;;;27.27;;
60306;SDS011;46155;52.364;6.580;2023-04-24T08:02:16;28.00;;;26.03;;
60306;SDS011;46155;52.364;6.580;2023-04-24T08:04:42;27.13;;;25.33;;
60306;SDS011;46155;52.364;6.580;2023-04-24T08:07:07;29.20;;;27.40;;
60306;SDS011;46155;52.364;6.580;2023-04-24T08:09:33;29.60;;;27.90;;
60306;SDS011;46155;52.364;6.580;2023-04-24T08:11:58;30.27;;;28.20;;
60306;SDS011;46155;52.364;6.580;2023-04-24T08:14:24;31.43;;;29.63;;
60306;SDS011;46155;52.364;6.580;2023-04-24T08:16:49;29.03;;;27.53;;
60306;SDS011;46155;52.364;6.580;2023-04-24T08:19:15;26.90;;;25.40;;
60306;SDS011;46155;52.364;6.580;2023-04-24T08:21:40;29.07;;;27.00;;
60306;SDS011;46155;52.364;6.580;2023-04-24T08:24:05;26.93;;;25.53;;
60306;SDS011;46155;52.364;6.580;2023-04-24T08:26:32;25.97;;;24.67;;
60306;SDS011;46155;52.364;6.580;2023-04-24T08:28:58;26.33;;;24.83;;
60306;SDS011;46155;52.364;6.580;2023-04-24T08:31:23;24.97;;;23.67;;
60306;SDS011;46155;52.364;6.580;2023-04-24T08:33:50;24.27;;;23.07;;
60306;SDS011;46155;52.364;6.580;2023-04-24T08:36:15;26.70;;;25.37;;
60306;SDS011;46155;52.364;6.580;2023-04-24T08:38:41;25.63;;;24.30;;
60306;SDS011;46155;52.364;6.580;2023-04-24T08:41:07;26.57;;;25.10;;
60306;SDS011;46155;52.364;6.580;2023-04-24T08:43:34;26.83;;;25.53;;
60306;SDS011;46155;52.364;6.580;2023-04-24T08:46:01;27.77;;;26.27;;
60306;SDS011;46155;52.364;6.580;2023-04-24T08:48:27;29.37;;;27.67;;
60306;SDS011;46155;52.364;6.580;2023-04-24T08:50:53;29.43;;;27.93;;
60306;SDS011;46155;52.364;6.580;2023-04-24T08:53:19;28.03;;;26.03;;
60306;SDS011;46155;52.364;6.580;2023-04-24T08:55:46;28.50;;;27.03;;
60306;SDS011;46155;52.364;6.580;2023-04-24T08:58:13;28.70;;;27.10;;
60306;SDS011;46155;52.364;6.580;2023-04-24T09:00:39;26.73;;;25.23;;
60306;SDS011;46155;52.364;6.580;2023-04-24T09:03:09;27.43;;;25.53;;
60306;SDS011;46155;52.364;6.580;2023-04-24T09:05:35;29.90;;;28.00;;
60306;SDS011;46155;52.364;6.580;2023-04-24T09:08:00;29.47;;;27.30;;
60306;SDS011;46155;52.364;6.580;2023-04-24T09:10:29;30.73;;;28.40;;
60306;SDS011;46155;52.364;6.580;2023-04-24T09:12:55;30.03;;;27.80;;
60306;SDS011;46155;52.364;6.580;2023-04-24T09:15:21;28.77;;;26.47;;
60306;SDS011;46155;52.364;6.580;2023-04-24T09:17:47;28.80;;;26.70;;
60306;SDS011;46155;52.364;6.580;2023-04-24T09:20:12;28.03;;;25.30;;
60306;SDS011;46155;52.364;6.580;2023-04-24T09:22:38;28.53;;;25.70;;
60306;SDS011;46155;52.364;6.580;2023-04-24T09:25:04;28.20;;;25.87;;
60306;SDS011;46155;52.364;6.580;2023-04-24T09:27:32;32.33;;;29.50;;
60306;SDS011;46155;52.364;6.580;2023-04-24T09:29:58;27.80;;;25.60;;
60306;SDS011;46155;52.364;6.580;2023-04-24T09:32:24;28.43;;;26.03;;
60306;SDS011;46155;52.364;6.580;2023-04-24T09:35:04;31.87;;;29.03;;
60306;SDS011;46155;52.364;6.580;2023-04-24T09:37:34;30.00;;;26.50;;
60306;SDS011;46155;52.364;6.580;2023-04-24T09:40:17;29.00;;;26.33;;
60306;SDS011;46155;52.364;6.580;2023-04-24T09:42:53;29.77;;;27.37;;
60306;SDS011;46155;52.364;6.580;2023-04-24T09:45:21;29.60;;;27.30;;
60306;SDS011;46155;52.364;6.580;2023-04-24T09:47:50;31.23;;;28.47;;
60306;SDS011;46155;52.364;6.580;2023-04-24T09:50:17;33.70;;;30.90;;
60306;SDS011;46155;52.364;6.580;2023-04-24T09:52:46;30.10;;;27.93;;
60306;SDS011;46155;52.364;6.580;2023-04-24T09:55:22;33.73;;;30.97;;
60306;SDS011;46155;52.364;6.580;2023-04-24T09:57:55;29.43;;;26.87;;
60306;SDS011;46155;52.364;6.580;2023-04-24T10:03:00;29.27;;;26.27;;
60306;SDS011;46155;52.364;6.580;2023-04-24T10:05:37;25.10;;;22.83;;
60306;SDS011;46155;52.364;6.580;2023-04-24T10:08:07;25.03;;;22.77;;
60306;SDS011;46155;52.364;6.580;2023-04-24T10:10:41;27.33;;;24.90;;
60306;SDS011;46155;52.364;6.580;2023-04-24T10:13:09;29.47;;;26.77;;
60306;SDS011;46155;52.364;6.580;2023-04-24T10:15:35;28.23;;;26.13;;
60306;SDS011;46155;52.364;6.580;2023-04-24T10:18:02;28.10;;;25.63;;
60306;SDS011;46155;52.364;6.580;2023-04-24T10:20:31;29.63;;;26.90;;
60306;SDS011;46155;52.364;6.580;2023-04-24T10:22:57;28.70;;;26.57;;
60306;SDS011;46155;52.364;6.580;2023-04-24T10:25:24;25.77;;;23.20;;
60306;SDS011;46155;52.364;6.580;2023-04-24T10:27:53;28.50;;;26.17;;
60306;SDS011;46155;52.364;6.580;2023-04-24T10:30:24;27.20;;;25.20;;
60306;SDS011;46155;52.364;6.580;2023-04-24T10:32:51;26.77;;;24.27;;
60306;SDS011;46155;52.364;6.580;2023-04-24T10:35:16;28.40;;;25.60;;
60306;SDS011;46155;52.364;6.580;2023-04-24T10:37:54;25.67;;;23.60;;
60306;SDS011;46155;52.364;6.580;2023-04-24T10:40:25;24.07;;;22.33;;
60306;SDS011;46155;52.364;6.580;2023-04-24T10:42:54;26.60;;;24.27;;
60306;SDS011;46155;52.364;6.580;2023-04-24T10:45:21;27.43;;;25.07;;
60306;SDS011;46155;52.364;6.580;2023-04-24T10:50:43;24.53;;;22.40;;
60306;SDS011;46155;52.364;6.580;2023-04-24T10:53:17;22.60;;;20.33;;
60306;SDS011;46155;52.364;6.580;2023-04-24T10:58:13;23.17;;;21.10;;
60306;SDS011;46155;52.364;6.580;2023-04-24T11:00:40;21.23;;;19.10;;
60306;SDS011;46155;52.364;6.580;2023-04-24T11:03:27;25.03;;;23.10;;
60306;SDS011;46155;52.364;6.580;2023-04-24T11:05:57;25.83;;;23.67;;
60306;SDS011;46155;52.364;6.580;2023-04-24T11:08:42;27.60;;;25.33;;
60306;SDS011;46155;52.364;6.580;2023-04-24T11:11:13;24.97;;;21.50;;
60306;SDS011;46155;52.364;6.580;2023-04-24T11:16:25;25.73;;;23.30;;
60306;SDS011;46155;52.364;6.580;2023-04-24T11:21:45;21.43;;;19.33;;
60306;SDS011;46155;52.364;6.580;2023-04-24T11:26:57;20.03;;;18.43;;
60306;SDS011;46155;52.364;6.580;2023-04-24T11:34:45;18.50;;;16.57;;
60306;SDS011;46155;52.364;6.580;2023-04-24T11:37:12;16.63;;;15.17;;
60306;SDS011;46155;52.364;6.580;2023-04-24T11:39:38;18.73;;;17.30;;
60306;SDS011;46155;52.364;6.580;2023-04-24T11:42:03;19.00;;;17.90;;
60306;SDS011;46155;52.364;6.580;2023-04-24T11:44:31;20.07;;;18.50;;
60306;SDS011;46155;52.364;6.580;2023-04-24T11:47:01;18.97;;;17.47;;
60306;SDS011;46155;52.364;6.580;2023-04-24T11:49:26;19.17;;;17.30;;
60306;SDS011;46155;52.364;6.580;2023-04-24T11:51:54;17.13;;;15.47;;
60306;SDS011;46155;52.364;6.580;2023-04-24T11:54:20;16.07;;;14.67;;
60306;SDS011;46155;52.364;6.580;2023-04-24T11:56:46;15.00;;;11.67;;
60306;SDS011;46155;52.364;6.580;2023-04-24T11:59:13;20.07;;;12.03;;
60306;SDS011;46155;52.364;6.580;2023-04-24T12:01:48;11.23;;;10.30;;
60306;SDS011;46155;52.364;6.580;2023-04-24T12:04:14;12.97;;;11.13;;
60306;SDS011;46155;52.364;6.580;2023-04-24T12:07:00;13.73;;;12.63;;
60306;SDS011;46155;52.364;6.580;2023-04-24T12:09:39;15.47;;;14.07;;
60306;SDS011;46155;52.364;6.580;2023-04-24T12:12:27;13.70;;;11.80;;
60306;SDS011;46155;52.364;6.580;2023-04-24T12:14:54;12.47;;;11.67;;
60306;SDS011;46155;52.364;6.580;2023-04-24T12:17:27;16.13;;;12.97;;
60306;SDS011;46155;52.364;6.580;2023-04-24T12:20:01;11.40;;;10.30;;
60306;SDS011;46155;52.364;6.580;2023-04-24T12:25:15;13.37;;;12.33;;
60306;SDS011;46155;52.364;6.580;2023-04-24T12:27:54;12.83;;;11.87;;
60306;SDS011;46155;52.364;6.580;2023-04-24T12:30:20;14.13;;;13.13;;
60306;SDS011;46155;52.364;6.580;2023-04-24T12:32:51;13.87;;;12.67;;
60306;SDS011;46155;52.364;6.580;2023-04-24T12:35:20;15.50;;;14.30;;
60306;SDS011;46155;52.364;6.580;2023-04-24T12:37:47;12.90;;;11.73;;
60306;SDS011;46155;52.364;6.580;2023-04-24T12:40:13;12.73;;;11.23;;
60306;SDS011;46155;52.364;6.580;2023-04-24T12:42:46;10.20;;;9.30;;
60306;SDS011;46155;52.364;6.580;2023-04-24T12:45:21;23.00;;;11.27;;
60306;SDS011;46155;52.364;6.580;2023-04-24T12:47:48;11.50;;;9.90;;
60306;SDS011;46155;52.364;6.580;2023-04-24T12:50:14;13.27;;;11.93;;
60306;SDS011;46155;52.364;6.580;2023-04-24T12:52:40;10.80;;;9.87;;
60306;SDS011;46155;52.364;6.580;2023-04-24T12:55:11;13.07;;;12.10;;
60306;SDS011;46155;52.364;6.580;2023-04-24T12:57:38;12.13;;;10.93;;
60306;SDS011;46155;52.364;6.580;2023-04-24T13:00:05;11.50;;;10.70;;
60306;SDS011;46155;52.364;6.580;2023-04-24T13:02:32;10.23;;;9.43;;
60306;SDS011;46155;52.364;6.580;2023-04-24T13:05:01;9.60;;;9.00;;
60306;SDS011;46155;52.364;6.580;2023-04-24T13:07:27;9.53;;;8.97;;
60306;SDS011;46155;52.364;6.580;2023-04-24T13:09:54;9.93;;;9.23;;
60306;SDS011;46155;52.364;6.580;2023-04-24T13:12:20;11.80;;;10.90;;
60306;SDS011;46155;52.364;6.580;2023-04-24T13:14:46;11.17;;;9.73;;
60306;SDS011;46155;52.364;6.580;2023-04-24T13:17:11;12.80;;;11.90;;
60306;SDS011;46155;52.364;6.580;2023-04-24T13:19:39;12.47;;;11.70;;
60306;SDS011;46155;52.364;6.580;2023-04-24T13:22:06;10.03;;;9.17;;
60306;SDS011;46155;52.364;6.580;2023-04-24T13:24:32;12.80;;;11.77;;
60306;SDS011;46155;52.364;6.580;2023-04-24T13:26:57;13.43;;;12.33;;
60306;SDS011;46155;52.364;6.580;2023-04-24T13:29:23;13.60;;;12.70;;
60306;SDS011;46155;52.364;6.580;2023-04-24T13:31:52;10.50;;;10.00;;
60306;SDS011;46155;52.364;6.580;2023-04-24T13:34:24;11.70;;;10.80;;
60306;SDS011;46155;52.364;6.580;2023-04-24T13:36:51;10.23;;;9.50;;
60306;SDS011;46155;52.364;6.580;2023-04-24T13:39:18;9.93;;;9.00;;
60306;SDS011;46155;52.364;6.580;2023-04-24T13:41:43;10.63;;;9.73;;
60306;SDS011;46155;52.364;6.580;2023-04-24T13:44:09;10.27;;;9.37;;
60306;SDS011;46155;52.364;6.580;2023-04-24T13:46:35;10.67;;;9.83;;
60306;SDS011;46155;52.364;6.580;2023-04-24T13:49:01;9.03;;;8.43;;
60306;SDS011;46155;52.364;6.580;2023-04-24T13:51:27;10.10;;;9.23;;
60306;SDS011;46155;52.364;6.580;2023-04-24T13:53:53;9.07;;;8.30;;
60306;SDS011;46155;52.364;6.580;2023-04-24T13:56:18;11.80;;;11.10;;
60306;SDS011;46155;52.364;6.580;2023-04-24T13:58:45;12.13;;;11.33;;
60306;SDS011;46155;52.364;6.580;2023-04-24T14:01:10;13.17;;;12.03;;
60306;SDS011;46155;52.364;6.580;2023-04-24T14:03:37;11.17;;;10.57;;
60306;SDS011;46155;52.364;6.580;2023-04-24T14:06:02;13.53;;;12.60;;
60306;SDS011;46155;52.364;6.580;2023-04-24T14:08:28;12.53;;;11.43;;
60306;SDS011;46155;52.364;6.580;2023-04-24T14:10:53;11.80;;;11.00;;
60306;SDS011;46155;52.364;6.580;2023-04-24T14:13:19;11.97;;;10.57;;
60306;SDS011;46155;52.364;6.580;2023-04-24T14:15:45;9.30;;;8.43;;
60306;SDS011;46155;52.364;6.580;2023-04-24T14:18:10;9.37;;;8.20;;
60306;SDS011;46155;52.364;6.580;2023-04-24T14:20:35;9.10;;;8.43;;
60306;SDS011;46155;52.364;6.580;2023-04-24T14:23:01;10.13;;;8.93;;
60306;SDS011;46155;52.364;6.580;2023-04-24T14:25:26;9.47;;;8.57;;
60306;SDS011;46155;52.364;6.580;2023-04-24T14:27:52;8.97;;;8.23;;
60306;SDS011;46155;52.364;6.580;2023-04-24T14:30:18;10.13;;;9.17;;
60306;SDS011;46155;52.364;6.580;2023-04-24T14:32:44;10.00;;;9.33;;
60306;SDS011;46155;52.364;6.580;2023-04-24T14:35:09;18.27;;;9.63;;
60306;SDS011;46155;52.364;6.580;2023-04-24T14:37:34;11.70;;;10.67;;
60306;SDS011;46155;52.364;6.580;2023-04-24T14:40:01;10.67;;;9.70;;
60306;SDS011;46155;52.364;6.580;2023-04-24T14:42:29;14.23;;;10.57;;
60306;SDS011;46155;52.364;6.580;2023-04-24T14:44:55;11.63;;;10.57;;
60306;SDS011;46155;52.364;6.580;2023-04-24T14:47:20;11.83;;;10.70;;
60306;SDS011;46155;52.364;6.580;2023-04-24T14:49:49;12.63;;;11.37;;
60306;SDS011;46155;52.364;6.580;2023-04-24T14:52:14;11.87;;;10.83;;
60306;SDS011;46155;52.364;6.580;2023-04-24T14:54:40;11.13;;;9.50;;
60306;SDS011;46155;52.364;6.580;2023-04-24T14:57:06;10.03;;;9.33;;
60306;SDS011;46155;52.364;6.580;2023-04-24T14:59:32;9.80;;;8.23;;
60306;SDS011;46155;52.364;6.580;2023-04-24T15:01:58;11.70;;;9.30;;
60306;SDS011;46155;52.364;6.580;2023-04-24T15:04:26;10.10;;;9.13;;
60306;SDS011;46155;52.364;6.580;2023-04-24T15:06:52;11.30;;;9.33;;
60306;SDS011;46155;52.364;6.580;2023-04-24T15:09:19;11.87;;;10.47;;
60306;SDS011;46155;52.364;6.580;2023-04-24T15:11:44;10.43;;;9.33;;
60306;SDS011;46155;52.364;6.580;2023-04-24T15:14:10;15.20;;;10.27;;
60306;SDS011;46155;52.364;6.580;2023-04-24T15:16:35;15.50;;;9.33;;
60306;SDS011;46155;52.364;6.580;2023-04-24T15:19:01;15.53;;;9.67;;
60306;SDS011;46155;52.364;6.580;2023-04-24T15:21:26;13.13;;;9.13;;
60306;SDS011;46155;52.364;6.580;2023-04-24T15:23:51;16.10;;;9.27;;
60306;SDS011;46155;52.364;6.580;2023-04-24T15:26:17;8.67;;;7.37;;
60306;SDS011;46155;52.364;6.580;2023-04-24T15:28:42;11.53;;;8.70;;
60306;SDS011;46155;52.364;6.580;2023-04-24T15:31:11;9.67;;;8.00;;
60306;SDS011;46155;52.364;6.580;2023-04-24T15:33:36;10.50;;;8.17;;
60306;SDS011;46155;52.364;6.580;2023-04-24T15:36:01;16.30;;;8.90;;
60306;SDS011;46155;52.364;6.580;2023-04-24T15:38:27;11.37;;;8.07;;
60306;SDS011;46155;52.364;6.580;2023-04-24T15:40:52;19.10;;;8.17;;
60306;SDS011;46155;52.364;6.580;2023-04-24T15:43:17;14.57;;;8.17;;
60306;SDS011;46155;52.364;6.580;2023-04-24T15:45:43;18.73;;;7.57;;
60306;SDS011;46155;52.364;6.580;2023-04-24T15:48:08;14.47;;;7.60;;
60306;SDS011;46155;52.364;6.580;2023-04-24T15:50:33;17.03;;;7.43;;
60306;SDS011;46155;52.364;6.580;2023-04-24T15:52:59;18.30;;;8.67;;
60306;SDS011;46155;52.364;6.580;2023-04-24T15:55:24;10.63;;;7.53;;
60306;SDS011;46155;52.364;6.580;2023-04-24T15:57:50;21.50;;;7.40;;
60306;SDS011;46155;52.364;6.580;2023-04-24T16:00:15;8.87;;;8.00;;
60306;SDS011;46155;52.364;6.580;2023-04-24T16:02:42;16.30;;;7.00;;
60306;SDS011;46155;52.364;6.580;2023-04-24T16:05:07;9.50;;;6.80;;
60306;SDS011;46155;52.364;6.580;2023-04-24T16:07:33;10.00;;;5.93;;
60306;SDS011;46155;52.364;6.580;2023-04-24T16:10:00;14.77;;;6.80;;
60306;SDS011;46155;52.364;6.580;2023-04-24T16:12:25;8.70;;;6.97;;
60306;SDS011;46155;52.364;6.580;2023-04-24T16:14:54;17.03;;;7.50;;
60306;SDS011;46155;52.364;6.580;2023-04-24T16:17:20;10.30;;;6.63;;
60306;SDS011;46155;52.364;6.580;2023-04-24T16:19:48;9.43;;;6.57;;
60306;SDS011;46155;52.364;6.580;2023-04-24T16:22:14;11.27;;;5.80;;
60306;SDS011;46155;52.364;6.580;2023-04-24T16:24:39;9.17;;;6.27;;
60306;SDS011;46155;52.364;6.580;2023-04-24T16:27:04;8.80;;;5.37;;
60306;SDS011;46155;52.364;6.580;2023-04-24T16:29:30;17.73;;;6.53;;
60306;SDS011;46155;52.364;6.580;2023-04-24T16:31:55;18.30;;;6.90;;
60306;SDS011;46155;52.364;6.580;2023-04-24T16:34:21;10.97;;;6.73;;
60306;SDS011;46155;52.364;6.580;2023-04-24T16:36:46;13.50;;;6.17;;
60306;SDS011;46155;52.364;6.580;2023-04-24T16:39:11;11.90;;;6.40;;
60306;SDS011;46155;52.364;6.580;2023-04-24T16:41:37;12.37;;;6.03;;
60306;SDS011;46155;52.364;6.580;2023-04-24T16:44:03;14.90;;;9.00;;
60306;SDS011;46155;52.364;6.580;2023-04-24T16:46:28;12.50;;;6.43;;
60306;SDS011;46155;52.364;6.580;2023-04-24T16:48:53;13.10;;;6.73;;
60306;SDS011;46155;52.364;6.580;2023-04-24T16:51:19;10.63;;;6.00;;
60306;SDS011;46155;52.364;6.580;2023-04-24T16:53:45;20.43;;;7.83;;
60306;SDS011;46155;52.364;6.580;2023-04-24T16:56:10;7.07;;;5.90;;
60306;SDS011;46155;52.364;6.580;2023-04-24T16:58:36;24.07;;;7.73;;
60306;SDS011;46155;52.364;6.580;2023-04-24T17:01:01;18.57;;;7.50;;
60306;SDS011;46155;52.364;6.580;2023-04-24T17:03:27;10.77;;;6.20;;
60306;SDS011;46155;52.364;6.580;2023-04-24T17:05:52;7.27;;;6.17;;
60306;SDS011;46155;52.364;6.580;2023-04-24T17:08:17;11.73;;;6.27;;
60306;SDS011;46155;52.364;6.580;2023-04-24T17:10:43;10.07;;;7.37;;
60306;SDS011;46155;52.364;6.580;2023-04-24T17:13:08;10.13;;;6.30;;
60306;SDS011;46155;52.364;6.580;2023-04-24T17:15:35;14.20;;;6.60;;
60306;SDS011;46155;52.364;6.580;2023-04-24T17:18:00;11.80;;;7.63;;
60306;SDS011;46155;52.364;6.580;2023-04-24T17:20:26;14.10;;;6.90;;
60306;SDS011;46155;52.364;6.580;2023-04-24T17:22:52;10.87;;;6.00;;
60306;SDS011;46155;52.364;6.580;2023-04-24T17:25:17;14.43;;;6.70;;
60306;SDS011;46155;52.364;6.580;2023-04-24T17:27:43;11.60;;;5.70;;
60306;SDS011;46155;52.364;6.580;2023-04-24T17:30:09;9.27;;;6.47;;
60306;SDS011;46155;52.364;6.580;2023-04-24T17:32:34;13.30;;;7.03;;
60306;SDS011;46155;52.364;6.580;2023-04-24T17:35:00;9.77;;;6.23;;
60306;SDS011;46155;52.364;6.580;2023-04-24T17:37:26;6.43;;;5.83;;
60306;SDS011;46155;52.364;6.580;2023-04-24T17:39:51;13.33;;;6.40;;
60306;SDS011;46155;52.364;6.580;2023-04-24T17:42:16;8.93;;;5.97;;
60306;SDS011;46155;52.364;6.580;2023-04-24T17:44:42;15.17;;;6.70;;
60306;SDS011;46155;52.364;6.580;2023-04-24T17:47:07;12.37;;;7.43;;
60306;SDS011;46155;52.364;6.580;2023-04-24T17:49:32;13.40;;;6.77;;